createdAt,value
2019-05-09T00:02:50.197Z,11.29
2019-05-09T00:05:18.882Z,11.34
2019-05-09T00:07:47.675Z,10.86
2019-05-09T00:10:16.914Z,10.80
2019-05-09T00:12:46.207Z,10.64
2019-05-09T00:15:15.604Z,10.77
2019-05-09T00:17:44.522Z,11.22
2019-05-09T00:20:45.644Z,11.04
2019-05-09T00:23:14.465Z,10.62
2019-05-09T00:25:43.415Z,10.73
2019-05-09T00:28:13.470Z,10.70
2019-05-09T00:31:04.484Z,10.63
2019-05-09T00:33:34.333Z,10.77
2019-05-09T00:36:04.130Z,10.57
2019-05-09T00:38:53.164Z,10.60
2019-05-09T00:41:23.842Z,10.68
2019-05-09T00:43:59.342Z,10.72
2019-05-09T00:46:37.825Z,10.57
2019-05-09T00:49:25.773Z,10.54
2019-05-09T00:51:54.450Z,10.26
2019-05-09T00:54:24.085Z,10.53
2019-05-09T00:56:54.020Z,10.46
2019-05-09T00:59:24.130Z,10.39
2019-05-09T01:01:54.334Z,10.44
2019-05-09T01:04:24.126Z,10.33
2019-05-09T01:06:53.977Z,10.17
2019-05-09T01:09:24.168Z,10.42
2019-05-09T01:11:53.536Z,10.33
2019-05-09T01:14:23.479Z,10.29
2019-05-09T01:16:53.465Z,10.24
2019-05-09T01:19:23.320Z,10.09
2019-05-09T01:21:54.277Z,10.06
2019-05-09T01:24:23.328Z,10.17
2019-05-09T01:26:54.199Z,10.39
2019-05-09T01:29:23.169Z,10.16
2019-05-09T01:31:54.152Z,10.16
2019-05-09T01:34:26.422Z,10.38
2019-05-09T01:37:08.749Z,9.93
2019-05-09T01:39:37.247Z,9.79
2019-05-09T01:42:06.585Z,10.01
2019-05-09T01:44:35.189Z,9.99
2019-05-09T01:47:04.207Z,9.96
2019-05-09T01:49:34.231Z,10.02
2019-05-09T01:52:03.547Z,10.37
2019-05-09T01:54:34.521Z,10.53
2019-05-09T01:57:03.612Z,10.55
2019-05-09T01:59:33.973Z,10.36
2019-05-09T02:02:08.071Z,10.90
2019-05-09T02:04:33.675Z,10.76
2019-05-09T02:07:04.180Z,10.17
2019-05-09T02:09:34.313Z,10.09
2019-05-09T02:12:03.989Z,10.32
2019-05-09T02:14:54.139Z,10.50
2019-05-09T02:17:55.855Z,10.04
2019-05-09T02:20:13.744Z,10.17
2019-05-09T02:22:43.504Z,10.38
2019-05-09T02:25:13.655Z,10.28
2019-05-09T02:27:43.641Z,10.26
2019-05-09T02:30:15.345Z,9.90
2019-05-09T02:32:45.231Z,9.97
2019-05-09T02:35:14.362Z,9.86
2019-05-09T02:37:42.991Z,9.58
2019-05-09T02:40:11.904Z,9.47
2019-05-09T02:42:40.697Z,9.33
2019-05-09T02:45:09.466Z,9.26
2019-05-09T02:47:38.763Z,9.08
2019-05-09T02:50:09.472Z,9.30
2019-05-09T02:52:39.626Z,9.15
2019-05-09T02:55:10.193Z,9.25
2019-05-09T02:57:39.336Z,9.32
2019-05-09T03:00:24.585Z,9.48
2019-05-09T03:03:12.844Z,9.34
2019-05-09T03:05:41.675Z,9.51
2019-05-09T03:08:10.366Z,9.57
2019-05-09T03:10:38.991Z,9.31
2019-05-09T03:13:09.112Z,9.36
2019-05-09T03:15:39.475Z,9.27
2019-05-09T03:18:09.169Z,9.39
2019-05-09T03:20:54.306Z,9.42
2019-05-09T03:23:22.963Z,9.59
2019-05-09T03:25:51.649Z,9.43
2019-05-09T03:28:40.527Z,9.47
2019-05-09T03:31:10.245Z,9.75
2019-05-09T03:33:40.474Z,9.81
2019-05-09T03:36:09.509Z,10.17
2019-05-09T03:38:38.008Z,9.84
2019-05-09T03:41:08.507Z,9.38
2019-05-09T03:43:37.847Z,9.38
2019-05-09T03:46:14.981Z,9.36
2019-05-09T03:48:47.869Z,9.45
2019-05-09T03:51:18.377Z,9.54
2019-05-09T03:53:48.444Z,9.38
2019-05-09T03:56:20.919Z,9.37
2019-05-09T03:58:49.510Z,9.38
2019-05-09T04:01:18.122Z,9.44
2019-05-09T04:03:48.145Z,9.41
2019-05-09T04:06:18.425Z,9.32
2019-05-09T04:08:48.161Z,9.30
2019-05-09T04:11:18.518Z,9.31
2019-05-09T04:13:58.253Z,9.34
2019-05-09T04:16:27.717Z,9.26
2019-05-09T04:18:58.086Z,9.60
2019-05-09T04:21:28.088Z,9.58
2019-05-09T04:23:58.467Z,9.88
2019-05-09T04:26:45.423Z,9.97
2019-05-09T04:29:14.042Z,9.99
2019-05-09T04:31:42.686Z,9.98
2019-05-09T04:34:11.411Z,10.19
2019-05-09T04:36:40.061Z,10.04
2019-05-09T04:39:12.665Z,9.99
2019-05-09T04:41:41.424Z,10.09
2019-05-09T04:44:19.193Z,10.29
2019-05-09T04:46:44.993Z,10.45
2019-05-09T04:49:13.607Z,10.66
2019-05-09T04:51:42.117Z,10.83
2019-05-09T04:54:10.834Z,10.57
2019-05-09T04:56:40.754Z,10.66
2019-05-09T04:59:09.339Z,10.47
2019-05-09T05:01:57.947Z,10.64
2019-05-09T05:04:28.223Z,10.77
2019-05-09T05:06:58.556Z,11.06
2019-05-09T05:09:27.842Z,11.36
2019-05-09T05:11:57.948Z,11.17
2019-05-09T05:14:29.780Z,11.10
2019-05-09T05:17:07.328Z,11.09
2019-05-09T05:19:31.487Z,11.54
2019-05-09T05:22:08.399Z,11.72
2019-05-09T05:24:49.968Z,11.90
2019-05-09T05:27:19.013Z,12.11
2019-05-09T05:29:47.797Z,12.27
2019-05-09T05:32:23.942Z,12.28
2019-05-09T05:35:07.580Z,12.19
2019-05-09T05:37:38.441Z,12.16
2019-05-09T05:40:07.922Z,12.46
2019-05-09T05:42:38.813Z,12.58
2019-05-09T05:45:07.692Z,12.75
2019-05-09T05:47:57.859Z,12.59
2019-05-09T05:50:28.113Z,12.40
2019-05-09T05:52:57.755Z,12.64
2019-05-09T05:55:27.545Z,12.65
2019-05-09T05:57:57.909Z,13.04
2019-05-09T06:00:28.548Z,12.68
2019-05-09T06:02:58.581Z,12.83
2019-05-09T06:05:27.892Z,12.77
2019-05-09T06:07:57.661Z,12.69
2019-05-09T06:10:28.794Z,12.66
2019-05-09T06:12:57.643Z,12.68
2019-05-09T06:15:28.609Z,12.88
2019-05-09T06:17:57.891Z,12.72
2019-05-09T06:20:28.090Z,12.80
2019-05-09T06:22:58.194Z,12.98
2019-05-09T06:25:30.453Z,13.18
2019-05-09T06:27:58.449Z,13.11
2019-05-09T06:30:28.564Z,13.23
2019-05-09T06:32:58.307Z,13.21
2019-05-09T06:35:28.241Z,13.48
2019-05-09T06:37:58.708Z,13.68
2019-05-09T06:40:28.787Z,13.87
2019-05-09T06:42:59.403Z,14.03
2019-05-09T06:45:39.213Z,14.10
2019-05-09T06:48:07.608Z,14.31
2019-05-09T06:50:37.863Z,14.44
2019-05-09T06:53:08.071Z,14.37
2019-05-09T06:55:38.569Z,14.29
2019-05-09T06:58:27.575Z,14.41
2019-05-09T07:01:07.742Z,14.62
2019-05-09T07:03:37.529Z,14.63
2019-05-09T07:06:13.423Z,14.51
2019-05-09T07:08:59.016Z,14.65
2019-05-09T07:11:27.677Z,14.91
2019-05-09T07:13:57.890Z,14.99
2019-05-09T07:16:27.641Z,15.13
2019-05-09T07:18:57.927Z,15.15
2019-05-09T07:21:48.384Z,14.89
2019-05-09T07:24:18.495Z,15.07
2019-05-09T07:26:47.863Z,15.03
2019-05-09T07:29:17.870Z,14.98
2019-05-09T07:31:51.670Z,14.94
2019-05-09T07:34:23.533Z,15.17
2019-05-09T07:36:51.960Z,15.39
2019-05-09T07:39:20.717Z,15.67
2019-05-09T07:41:49.810Z,15.73
2019-05-09T07:44:18.515Z,15.74
2019-05-09T07:46:52.767Z,15.60
2019-05-09T07:49:21.444Z,15.61
2019-05-09T07:51:50.049Z,15.67
2019-05-09T07:54:25.043Z,15.67
2019-05-09T07:56:49.369Z,15.72
2019-05-09T07:59:18.183Z,15.93
2019-05-09T08:01:48.716Z,15.97
2019-05-09T08:04:18.281Z,15.96
2019-05-09T08:06:48.666Z,15.95
2019-05-09T08:09:18.681Z,16.07
2019-05-09T08:11:48.299Z,16.10
2019-05-09T08:14:17.723Z,16.18
2019-05-09T08:16:47.539Z,16.10
2019-05-09T08:19:18.069Z,16.27
2019-05-09T08:21:47.985Z,16.42
2019-05-09T08:24:18.317Z,16.39
2019-05-09T08:26:47.833Z,16.53
2019-05-09T08:29:17.839Z,16.42
2019-05-09T08:31:48.546Z,16.44
2019-05-09T08:34:18.720Z,16.47
2019-05-09T08:36:47.883Z,16.67
2019-05-09T08:39:20.166Z,16.74
2019-05-09T08:41:48.531Z,16.83
2019-05-09T08:44:18.707Z,17.03
2019-05-09T08:46:48.096Z,17.34
2019-05-09T08:49:20.295Z,17.43
2019-05-09T08:52:09.019Z,17.54
2019-05-09T08:55:00.521Z,17.41
2019-05-09T08:57:29.144Z,17.80
2019-05-09T08:59:58.909Z,17.74
2019-05-09T09:02:28.402Z,17.61
2019-05-09T09:04:58.233Z,17.70
2019-05-09T09:07:29.772Z,17.89
2019-05-09T09:09:57.864Z,18.00
2019-05-09T09:12:33.802Z,17.98
2019-05-09T09:14:58.617Z,17.92
2019-05-09T09:17:28.006Z,18.11
2019-05-09T09:19:58.260Z,18.04
2019-05-09T09:22:28.323Z,18.05
2019-05-09T09:24:58.664Z,18.30
2019-05-09T09:27:28.002Z,18.44
2019-05-09T09:29:58.724Z,18.69
2019-05-09T09:32:28.193Z,18.64
2019-05-09T09:34:58.756Z,18.66
2019-05-09T09:37:32.721Z,18.60
2019-05-09T09:39:58.348Z,18.43
2019-05-09T09:42:28.343Z,18.56
2019-05-09T09:44:58.519Z,18.72
2019-05-09T09:47:28.591Z,18.56
2019-05-09T09:49:59.548Z,18.67
2019-05-09T09:52:29.769Z,18.78
2019-05-09T09:54:58.707Z,18.96
2019-05-09T09:57:28.870Z,18.87
2019-05-09T10:00:14.124Z,18.85
2019-05-09T10:02:42.843Z,18.70
2019-05-09T10:05:11.371Z,18.89
2019-05-09T10:07:39.966Z,18.89
2019-05-09T10:10:10.356Z,18.93
2019-05-09T10:12:44.372Z,19.04
2019-05-09T10:15:28.049Z,19.17
2019-05-09T10:18:18.306Z,19.17
2019-05-09T10:20:52.439Z,19.23
2019-05-09T10:23:21.883Z,19.40
2019-05-09T10:25:50.763Z,19.41
2019-05-09T10:28:21.501Z,19.58
2019-05-09T10:30:49.868Z,19.64
2019-05-09T10:33:18.459Z,19.57
2019-05-09T10:35:47.868Z,19.98
2019-05-09T10:38:18.421Z,20.17
2019-05-09T10:40:48.560Z,20.10
2019-05-09T10:43:39.070Z,20.31
2019-05-09T10:46:48.081Z,20.24
2019-05-09T10:49:02.992Z,20.17
2019-05-09T10:51:31.855Z,20.18
2019-05-09T10:54:00.418Z,20.14
2019-05-09T10:56:29.118Z,20.29
2019-05-09T10:58:58.462Z,20.28
2019-05-09T11:01:29.462Z,20.21
2019-05-09T11:03:58.949Z,20.26
2019-05-09T11:06:28.843Z,20.30
2019-05-09T11:08:58.490Z,20.06
2019-05-09T11:11:28.515Z,19.75
2019-05-09T11:13:58.642Z,19.95
2019-05-09T11:16:41.948Z,20.06
2019-05-09T11:18:58.707Z,20.28
2019-05-09T11:21:28.854Z,20.14
2019-05-09T11:23:58.631Z,20.20
2019-05-09T11:26:28.451Z,20.39
2019-05-09T11:28:58.825Z,20.35
2019-05-09T11:31:29.591Z,20.46
2019-05-09T11:33:58.252Z,20.40
2019-05-09T11:36:26.848Z,20.26
2019-05-09T11:38:59.827Z,20.25
2019-05-09T11:41:29.145Z,20.23
2019-05-09T11:43:59.091Z,20.28
2019-05-09T11:46:28.877Z,20.33
2019-05-09T11:48:58.526Z,20.27
2019-05-09T11:51:29.002Z,20.32
2019-05-09T11:53:58.330Z,20.31
2019-05-09T11:56:26.961Z,20.28
2019-05-09T11:58:57.735Z,20.38
2019-05-09T12:01:26.011Z,20.36
2019-05-09T12:03:54.710Z,20.16
2019-05-09T12:06:23.407Z,20.25
2019-05-09T12:08:52.135Z,20.30
2019-05-09T12:11:20.784Z,20.34
2019-05-09T12:13:49.343Z,20.25
2019-05-09T12:16:18.713Z,20.23
2019-05-09T12:18:48.819Z,20.19
2019-05-09T12:21:19.027Z,20.26
2019-05-09T12:23:49.105Z,20.24
2019-05-09T12:26:18.594Z,20.27
2019-05-09T12:28:48.385Z,20.31
2019-05-09T12:31:18.091Z,20.26
2019-05-09T12:33:48.250Z,20.29
2019-05-09T12:36:21.275Z,20.35
2019-05-09T12:38:50.305Z,20.36
2019-05-09T12:41:19.402Z,20.36
2019-05-09T12:43:48.725Z,20.45
2019-05-09T12:46:18.002Z,20.40
2019-05-09T12:48:48.157Z,20.52
2019-05-09T12:51:18.410Z,20.48
2019-05-09T12:53:48.496Z,20.45
2019-05-09T12:56:18.734Z,20.55
2019-05-09T12:58:48.049Z,20.56
2019-05-09T13:01:18.718Z,20.53
2019-05-09T13:03:48.392Z,20.43
2019-05-09T13:06:19.939Z,20.46
2019-05-09T13:08:48.467Z,20.58
2019-05-09T13:11:18.758Z,20.52
2019-05-09T13:13:48.094Z,20.40
2019-05-09T13:16:45.484Z,20.33
2019-05-09T13:19:09.584Z,20.40
2019-05-09T13:21:39.173Z,20.24
2019-05-09T13:24:08.744Z,20.30
2019-05-09T13:26:38.559Z,20.14
2019-05-09T13:29:08.235Z,20.17
2019-05-09T13:31:39.164Z,20.22
2019-05-09T13:34:08.313Z,20.19
2019-05-09T13:36:37.158Z,20.35
2019-05-09T13:39:08.793Z,20.27
2019-05-09T13:41:38.769Z,20.42
2019-05-09T13:44:13.260Z,20.31
2019-05-09T13:46:41.098Z,20.39
2019-05-09T13:49:14.864Z,20.40
2019-05-09T13:51:50.097Z,20.43
2019-05-09T13:54:11.845Z,20.22
2019-05-09T13:56:40.765Z,20.17
2019-05-09T13:59:09.605Z,20.14
2019-05-09T14:01:38.368Z,20.05
2019-05-09T14:04:07.903Z,20.02
2019-05-09T14:06:38.672Z,19.92
2019-05-09T14:09:10.129Z,19.91
2019-05-09T14:11:38.904Z,19.96
2019-05-09T14:14:07.604Z,19.76
2019-05-09T14:16:38.966Z,19.87
2019-05-09T14:19:28.546Z,19.82
2019-05-09T14:21:37.802Z,19.69
2019-05-09T14:40:20.014Z,19.43
2019-05-09T14:43:06.218Z,19.49
2019-05-09T14:45:38.070Z,19.26
2019-05-09T14:48:08.012Z,19.05
2019-05-09T14:50:38.145Z,18.98
2019-05-09T14:53:08.647Z,18.79
2019-05-09T14:55:39.157Z,18.86
2019-05-09T14:58:10.015Z,18.70
2019-05-09T15:00:38.760Z,18.82
2019-05-09T15:03:08.223Z,18.93
2019-05-09T15:05:37.891Z,18.66
2019-05-09T15:08:09.658Z,18.52
2019-05-09T15:10:38.558Z,18.57
2019-05-09T15:13:07.941Z,18.82
2019-05-09T15:15:38.042Z,18.71
2019-05-09T15:18:08.101Z,18.71
2019-05-09T15:20:38.103Z,18.49
2019-05-09T15:23:08.562Z,18.55
2019-05-09T15:25:38.016Z,18.54
2019-05-09T15:28:08.199Z,18.48
2019-05-09T15:30:38.574Z,18.48
2019-05-09T15:33:08.404Z,18.28
2019-05-09T15:35:39.139Z,18.21
2019-05-09T15:38:08.817Z,18.18
2019-05-09T15:40:38.699Z,18.21
2019-05-09T15:43:08.463Z,18.09
2019-05-09T15:45:45.515Z,18.05
2019-05-09T15:48:14.247Z,18.24
2019-05-09T15:50:43.062Z,17.98
2019-05-09T15:53:11.914Z,17.95
2019-05-09T15:55:41.498Z,18.23
2019-05-09T15:58:10.581Z,18.15
2019-05-09T16:00:39.733Z,17.99
2019-05-09T16:03:09.119Z,17.95
2019-05-09T16:05:38.690Z,17.78
2019-05-09T16:08:09.155Z,18.01
2019-05-09T16:10:38.814Z,17.96
2019-05-09T16:13:08.283Z,17.81
2019-05-09T16:15:38.211Z,17.78
2019-05-09T16:18:08.616Z,17.82
2019-05-09T16:20:41.057Z,17.70
2019-05-09T16:23:08.486Z,17.79
2019-05-09T16:25:38.689Z,17.73
2019-05-09T16:28:08.207Z,17.83
2019-05-09T16:30:38.247Z,17.59
2019-05-09T16:33:08.163Z,17.49
2019-05-09T16:35:38.162Z,17.35
2019-05-09T16:38:10.739Z,17.24
2019-05-09T16:40:38.706Z,17.05
2019-05-09T16:43:09.035Z,17.08
2019-05-09T16:45:38.227Z,16.96
2019-05-09T16:48:11.366Z,17.03
2019-05-09T16:50:41.867Z,17.11
2019-05-09T16:53:09.614Z,16.97
2019-05-09T16:55:40.187Z,17.02
2019-05-09T16:58:09.106Z,16.97
2019-05-09T17:00:41.396Z,17.01
2019-05-09T17:03:09.999Z,16.83
2019-05-09T17:05:38.807Z,16.77
2019-05-09T17:08:08.296Z,16.64
2019-05-09T17:10:37.254Z,16.53
2019-05-09T17:13:07.805Z,16.62
2019-05-09T17:15:38.758Z,16.48
2019-05-09T17:18:09.747Z,16.53
2019-05-09T17:21:15.027Z,16.30
2019-05-09T17:23:33.357Z,16.31
2019-05-09T17:26:02.059Z,16.29
2019-05-09T17:28:30.644Z,16.21
2019-05-09T17:30:59.868Z,16.20
2019-05-09T17:33:28.916Z,16.17
2019-05-09T17:35:57.914Z,16.14
2019-05-09T17:38:27.915Z,16.13
2019-05-09T17:40:57.673Z,16.06
2019-05-09T17:43:27.883Z,16.01
2019-05-09T17:45:58.498Z,16.15
2019-05-09T17:48:28.477Z,16.21
2019-05-09T17:50:57.988Z,16.04
2019-05-09T17:53:29.361Z,16.09
2019-05-09T17:55:58.586Z,15.98
2019-05-09T17:58:33.126Z,15.98
2019-05-09T18:00:58.210Z,16.05
2019-05-09T18:03:29.100Z,16.15
2019-05-09T18:05:57.868Z,16.24
2019-05-09T18:08:28.404Z,16.25
2019-05-09T18:10:58.276Z,16.21
2019-05-09T18:13:29.575Z,16.08
2019-05-09T18:15:57.788Z,15.92
2019-05-09T18:18:28.369Z,15.95
2019-05-09T18:20:58.040Z,16.25
2019-05-09T18:23:28.355Z,15.61
2019-05-09T18:25:58.577Z,15.72
2019-05-09T18:28:29.301Z,15.62
2019-05-09T18:30:58.495Z,15.71
2019-05-09T18:33:52.671Z,15.57
2019-05-09T18:36:21.557Z,15.68
2019-05-09T18:38:50.064Z,15.73
2019-05-09T18:41:19.440Z,15.82
2019-05-09T18:43:48.136Z,15.93
2019-05-09T18:46:17.617Z,15.68
2019-05-09T18:48:47.098Z,15.82
2019-05-09T18:51:16.042Z,15.81
2019-05-09T18:53:44.803Z,15.66
2019-05-09T18:56:13.694Z,15.46
2019-05-09T18:58:42.097Z,15.76
2019-05-09T19:01:10.902Z,15.49
2019-05-09T19:03:39.698Z,15.53
2019-05-09T19:06:08.595Z,15.46
2019-05-09T19:08:37.398Z,15.42
2019-05-09T19:11:06.198Z,15.37
2019-05-09T19:13:34.905Z,15.74
2019-05-09T19:16:32.088Z,15.39
2019-05-09T19:19:11.654Z,15.39
2019-05-09T19:21:48.496Z,15.28
2019-05-09T19:24:17.107Z,15.49
2019-05-09T19:26:46.101Z,15.46
2019-05-09T19:29:14.721Z,15.18
2019-05-09T19:31:43.413Z,15.21
2019-05-09T19:34:12.318Z,15.19
2019-05-09T19:36:40.916Z,15.28
2019-05-09T19:39:09.728Z,15.13
2019-05-09T19:41:38.610Z,15.19
2019-05-09T19:44:08.129Z,15.30
2019-05-09T19:46:36.723Z,15.22
2019-05-09T19:49:05.590Z,15.19
2019-05-09T19:51:34.243Z,15.21
2019-05-09T19:54:03.628Z,15.21
2019-05-09T19:56:32.615Z,15.31
2019-05-09T19:59:02.398Z,15.13
2019-05-09T20:01:31.303Z,15.02
2019-05-09T20:04:00.360Z,15.26
2019-05-09T20:06:30.058Z,15.41
2019-05-09T20:08:59.275Z,15.61
2019-05-09T20:11:49.965Z,15.52
2019-05-09T20:14:25.073Z,14.96
2019-05-09T20:16:55.810Z,15.06
2019-05-09T20:19:24.933Z,14.94
2019-05-09T20:21:53.937Z,15.04
2019-05-09T20:24:23.041Z,15.19
2019-05-09T20:26:51.945Z,15.25
2019-05-09T20:29:20.575Z,15.37
2019-05-09T20:31:49.397Z,15.21
2019-05-09T20:34:18.741Z,15.19
2019-05-09T20:36:47.873Z,15.33
2019-05-09T20:39:16.735Z,15.30
2019-05-09T20:41:45.444Z,15.06
2019-05-09T20:44:14.043Z,15.23
2019-05-09T20:46:42.627Z,15.12
2019-05-09T20:49:11.546Z,15.11
2019-05-09T20:51:40.145Z,15.20
2019-05-09T20:54:20.619Z,15.11
2019-05-09T20:56:39.285Z,15.04
2019-05-09T20:59:07.967Z,14.92
2019-05-09T21:01:36.608Z,14.89
2019-05-09T21:04:05.099Z,14.96
2019-05-09T21:06:34.494Z,14.90
2019-05-09T21:09:05.340Z,14.86
2019-05-09T21:11:34.143Z,14.84
2019-05-09T21:14:03.462Z,14.62
2019-05-09T21:16:32.470Z,14.78
2019-05-09T21:19:01.167Z,14.70
2019-05-09T21:21:29.882Z,14.64
2019-05-09T21:23:58.557Z,14.54
2019-05-09T21:26:27.283Z,14.59
2019-05-09T21:28:55.965Z,14.65
2019-05-09T21:31:24.472Z,14.61
2019-05-09T21:33:53.006Z,14.58
2019-05-09T21:36:21.849Z,14.77
2019-05-09T21:38:50.524Z,14.64
2019-05-09T21:41:19.147Z,14.54
2019-05-09T21:43:47.840Z,14.61
2019-05-09T21:46:16.323Z,14.64
2019-05-09T21:48:45.010Z,14.58
2019-05-09T21:51:13.601Z,14.49
2019-05-09T21:53:42.389Z,14.72
2019-05-09T21:56:10.984Z,14.54
2019-05-09T21:58:39.682Z,14.47
2019-05-09T22:01:12.663Z,14.52
2019-05-09T22:03:41.340Z,14.39
2019-05-09T22:06:10.065Z,14.54
2019-05-09T22:08:38.747Z,14.65
2019-05-09T22:11:07.450Z,14.37
2019-05-09T22:13:36.147Z,14.45
2019-05-09T22:16:04.822Z,14.44
2019-05-09T22:18:33.402Z,14.45
2019-05-09T22:21:01.993Z,14.31
2019-05-09T22:23:30.682Z,14.37
2019-05-09T22:25:59.459Z,14.31
2019-05-09T22:28:28.028Z,14.57
2019-05-09T22:30:56.599Z,14.50
2019-05-09T22:33:25.195Z,14.60
2019-05-09T22:35:53.870Z,14.59
2019-05-09T22:38:22.555Z,14.37
2019-05-09T22:40:51.156Z,14.29
2019-05-09T22:43:19.631Z,14.17
2019-05-09T22:45:48.208Z,14.15
2019-05-09T22:48:16.870Z,14.30
2019-05-09T22:50:45.452Z,14.26
2019-05-09T22:53:14.035Z,14.39
2019-05-09T22:55:42.814Z,14.47
2019-05-09T22:58:11.444Z,14.23
2019-05-09T23:00:39.992Z,14.36
2019-05-09T23:03:08.682Z,14.36
2019-05-09T23:05:37.419Z,14.08
2019-05-09T23:08:06.066Z,14.20
2019-05-09T23:10:34.760Z,14.09
2019-05-09T23:13:03.368Z,14.16
2019-05-09T23:15:32.364Z,14.08
2019-05-09T23:18:01.547Z,13.92
2019-05-09T23:20:47.939Z,14.19
2019-05-09T23:23:36.051Z,13.98
2019-05-09T23:26:05.078Z,14.05
2019-05-09T23:28:33.992Z,13.90
2019-05-09T23:31:06.215Z,13.95
2019-05-09T23:33:38.007Z,13.85
2019-05-09T23:36:07.023Z,13.79
2019-05-09T23:38:55.526Z,13.81
2019-05-09T23:41:24.546Z,13.78
2019-05-09T23:43:53.867Z,13.70
2019-05-09T23:46:22.639Z,13.61
2019-05-09T23:48:51.556Z,13.87
2019-05-09T23:51:20.411Z,13.94
2019-05-09T23:53:54.789Z,13.79
2019-05-09T23:56:41.360Z,13.58
2019-05-09T23:59:27.737Z,13.71
